Time;durP1;ratioP1;P1;durP2;ratioP2;P2;SDS_P1;SDS_P2;PMS_P1;PMS_P2;Temp;Humidity;BMP_temperature;BMP_pressure;BME280_temperature;BME280_humidity;BME280_pressure;Samples;Min_cycle;Max_cycle;Signal;HPM_P1;HPM_P2
2021/08/27 04:02:34;;;;;;;7.00;3.30;;;10.20;96.30;;;;;;4924663;23;20875;-83
2021/08/27 04:05:14;;;;;;;4.10;3.80;;;10.20;96.30;;;;;;4916324;29;20501;-82
2021/08/27 04:07:42;;;;;;;7.23;4.23;;;10.20;96.30;;;;;;4916083;29;20425;-83
2021/08/27 04:10:09;;;;;;;4.47;4.07;;;10.20;96.30;;;;;;4948029;29;20416;-83
2021/08/27 04:12:35;;;;;;;13.13;4.60;;;10.20;96.30;;;;;;4897274;29;20425;-83
2021/08/27 04:15:02;;;;;;;4.90;4.50;;;10.20;96.30;;;;;;4908467;29;20453;-84
2021/08/27 04:17:29;;;;;;;5.67;4.00;;;10.20;96.30;;;;;;4898553;29;20421;-83
2021/08/27 04:19:54;;;;;;;5.77;5.07;;;10.20;96.30;;;;;;4897217;29;20470;-83
2021/08/27 04:22:20;;;;;;;8.20;5.37;;;10.20;96.30;;;;;;4928134;29;20822;-83
2021/08/27 04:24:45;;;;;;;8.13;5.03;;;10.20;96.30;;;;;;4898419;29;20645;-82
2021/08/27 04:27:11;;;;;;;8.97;6.20;;;10.20;96.30;;;;;;4915931;29;20200;-79
2021/08/27 04:29:36;;;;;;;4.87;4.47;;;10.20;96.30;;;;;;4919341;29;20172;-80
2021/08/27 04:32:02;;;;;;;5.37;4.87;;;10.20;96.30;;;;;;4919064;29;20669;-81
2021/08/27 04:34:27;;;;;;;5.47;4.93;;;10.10;96.30;;;;;;4919696;29;20200;-79
2021/08/27 04:36:53;;;;;;;4.97;4.57;;;10.10;96.30;;;;;;4919682;29;20183;-79
2021/08/27 04:39:19;;;;;;;7.27;4.93;;;10.10;96.30;;;;;;4918632;29;20659;-81
2021/08/27 04:41:44;;;;;;;5.60;4.60;;;10.10;96.30;;;;;;4918093;29;20287;-80
2021/08/27 04:44:10;;;;;;;5.13;4.60;;;10.10;96.30;;;;;;4934586;29;20547;-79
2021/08/27 04:46:35;;;;;;;6.07;5.47;;;10.10;96.30;;;;;;4918026;29;20219;-79
2021/08/27 04:49:01;;;;;;;5.07;4.67;;;10.20;96.30;;;;;;4918164;29;20609;-78
2021/08/27 04:51:26;;;;;;;5.53;5.00;;;10.20;96.30;;;;;;4918802;29;20200;-82
2021/08/27 04:53:52;;;;;;;5.70;5.30;;;10.20;96.30;;;;;;4917574;29;20796;-78
2021/08/27 04:56:18;;;;;;;6.50;5.40;;;10.20;96.30;;;;;;4932601;29;20172;-78
2021/08/27 04:58:44;;;;;;;6.60;6.00;;;10.20;96.30;;;;;;4918011;29;20172;-79
2021/08/27 05:01:09;;;;;;;7.30;6.60;;;10.20;96.30;;;;;;4897735;29;20457;-80
2021/08/27 05:03:35;;;;;;;6.73;6.13;;;10.10;96.30;;;;;;4897642;29;20205;-80
2021/08/27 05:06:01;;;;;;;7.03;6.27;;;10.10;96.30;;;;;;4897560;29;20189;-80
2021/08/27 05:08:27;;;;;;;5.87;5.33;;;10.20;96.30;;;;;;4898420;29;20173;-81
2021/08/27 05:10:53;;;;;;;23.87;6.70;;;10.20;96.30;;;;;;4899991;29;20447;-81
2021/08/27 05:13:18;;;;;;;5.47;4.77;;;10.20;96.30;;;;;;4898405;29;20205;-81
2021/08/27 05:15:44;;;;;;;6.00;5.40;;;10.20;96.30;;;;;;4899150;29;20876;-81
2021/08/27 05:18:09;;;;;;;7.03;5.10;;;10.20;96.30;;;;;;4898581;29;20551;-81
2021/08/27 05:20:35;;;;;;;6.20;4.77;;;10.20;96.30;;;;;;4902498;29;20668;-81
2021/08/27 05:23:01;;;;;;;6.40;5.80;;;10.20;96.30;;;;;;4917390;29;20200;-81
2021/08/27 05:25:27;;;;;;;7.63;4.30;;;10.20;96.30;;;;;;4918253;29;20180;-82
2021/08/27 05:27:53;;;;;;;4.97;4.57;;;10.20;96.30;;;;;;4916936;29;20420;-83
2021/08/27 05:30:18;;;;;;;4.97;4.50;;;10.20;96.30;;;;;;4915372;29;20227;-83
2021/08/27 05:32:45;;;;;;;6.03;4.47;;;10.20;96.30;;;;;;4914654;29;20191;-83
2021/08/27 05:35:11;;;;;;;4.47;4.03;;;10.30;96.30;;;;;;4915031;29;20223;-83
2021/08/27 05:37:37;;;;;;;7.17;4.10;;;10.30;96.30;;;;;;4916388;29;20416;-83
2021/08/27 05:40:05;;;;;;;4.37;3.70;;;10.30;96.30;;;;;;4915013;29;20508;-83
2021/08/27 05:42:31;;;;;;;6.50;3.50;;;10.30;96.30;;;;;;4914511;29;20737;-83
2021/08/27 05:44:57;;;;;;;4.50;3.93;;;10.30;96.30;;;;;;4916118;29;20452;-83
2021/08/27 05:47:23;;;;;;;3.10;2.80;;;10.30;96.30;;;;;;4910987;29;20546;-83
2021/08/27 05:49:48;;;;;;;3.03;2.80;;;10.20;96.30;;;;;;4897981;29;20220;-83
2021/08/27 05:52:14;;;;;;;3.90;3.60;;;10.30;96.30;;;;;;4901831;29;20452;-83
2021/08/27 05:54:39;;;;;;;7.07;2.97;;;10.30;96.30;;;;;;4895358;29;20212;-83
2021/08/27 05:57:05;;;;;;;3.30;3.00;;;10.30;96.30;;;;;;4895571;29;20208;-84
2021/08/27 05:59:30;;;;;;;3.13;2.90;;;10.30;96.30;;;;;;4897084;29;20252;-81
2021/08/27 06:01:56;;;;;;;4.43;3.23;;;10.30;96.30;;;;;;4899786;29;20208;-83
2021/08/27 06:04:21;;;;;;;6.50;4.73;;;10.30;96.30;;;;;;4930827;29;20521;-84
2021/08/27 06:06:49;;;;;;;8.80;4.60;;;10.30;96.30;;;;;;4899327;29;20653;-84
2021/08/27 06:09:15;;;;;;;4.63;4.20;;;10.30;96.30;;;;;;4899473;29;20181;-83
2021/08/27 06:11:40;;;;;;;6.43;4.23;;;10.30;96.30;;;;;;4900380;29;20443;-83
2021/08/27 06:14:06;;;;;;;6.00;5.03;;;10.30;96.30;;;;;;4901025;29;20417;-82
2021/08/27 06:16:33;;;;;;;5.20;4.70;;;10.40;96.30;;;;;;4900921;29;20180;-83
2021/08/27 06:19:02;;;;;;;5.20;4.70;;;10.40;96.30;;;;;;4901023;29;20409;-83
2021/08/27 06:21:27;;;;;;;5.40;4.90;;;10.40;96.30;;;;;;4900287;29;20461;-82
2021/08/27 06:23:53;;;;;;;7.00;5.00;;;10.50;96.30;;;;;;4901961;29;20405;-83
2021/08/27 06:26:19;;;;;;;5.40;4.90;;;10.50;96.30;;;;;;4912659;29;20702;-81
2021/08/27 06:28:45;;;;;;;4.60;4.20;;;10.50;96.30;;;;;;4918733;29;20182;-80
2021/08/27 06:31:10;;;;;;;4.00;3.70;;;10.60;96.30;;;;;;4917812;29;20440;-79
2021/08/27 06:33:36;;;;;;;3.83;3.50;;;10.60;96.30;;;;;;4919274;29;20176;-80
2021/08/27 06:36:02;;;;;;;4.20;3.80;;;10.60;96.30;;;;;;4919880;29;20247;-80
2021/08/27 06:38:27;;;;;;;3.77;3.47;;;10.60;96.30;;;;;;4917107;29;20197;-82
2021/08/27 06:40:59;;;;;;;4.80;3.63;;;10.60;96.30;;;;;;4916935;29;20200;-82
2021/08/27 06:43:27;;;;;;;4.30;3.90;;;10.60;96.30;;;;;;4921193;29;20184;-82
2021/08/27 06:45:58;;;;;;;12.33;4.00;;;10.70;96.30;;;;;;4920227;29;20420;-82
2021/08/27 06:48:24;;;;;;;7.57;4.30;;;10.80;96.30;;;;;;4921310;29;21162;-81
2021/08/27 06:50:50;;;;;;;3.50;2.67;;;10.80;96.30;;;;;;4920970;29;21012;-82
2021/08/27 06:53:15;;;;;;;4.00;3.50;;;10.80;96.30;;;;;;4918276;29;20275;-83
2021/08/27 06:55:41;;;;;;;9.37;3.47;;;10.70;96.30;;;;;;4922113;29;20218;-84
2021/08/27 06:58:06;;;;;;;4.40;3.87;;;10.70;96.30;;;;;;4918782;29;20171;-83
2021/08/27 07:00:33;;;;;;;4.63;4.07;;;10.80;96.30;;;;;;4901807;29;20225;-82
2021/08/27 07:02:58;;;;;;;4.27;3.77;;;10.90;96.30;;;;;;4898514;29;20192;-82
2021/08/27 07:05:24;;;;;;;5.03;3.80;;;11.10;96.30;;;;;;4898972;29;20830;-84
2021/08/27 07:07:50;;;;;;;5.23;3.87;;;11.30;96.30;;;;;;4899464;29;20224;-83
2021/08/27 07:10:16;;;;;;;5.90;4.50;;;11.50;96.30;;;;;;4899814;29;20264;-83
2021/08/27 07:12:41;;;;;;;4.57;3.90;;;11.70;96.30;;;;;;4898649;29;20500;-83
2021/08/27 07:15:08;;;;;;;9.10;4.10;;;11.80;96.30;;;;;;4899869;29;20212;-83
2021/08/27 07:17:33;;;;;;;5.40;3.23;;;11.80;96.30;;;;;;4899644;29;20188;-83
2021/08/27 07:19:59;;;;;;;3.80;3.53;;;11.70;96.30;;;;;;4898881;29;20410;-82
2021/08/27 07:22:25;;;;;;;3.67;3.13;;;11.70;96.30;;;;;;4898229;29;20251;-82
2021/08/27 07:24:50;;;;;;;5.43;3.27;;;11.70;96.30;;;;;;4918646;29;20200;-83
2021/08/27 07:27:16;;;;;;;2.97;2.70;;;11.60;96.30;;;;;;4917895;29;20185;-83
2021/08/27 07:29:41;;;;;;;3.80;2.80;;;11.60;96.30;;;;;;4909358;29;20181;-82
2021/08/27 07:32:11;;;;;;;2.87;2.67;;;11.60;96.30;;;;;;4879380;29;20201;-83
2021/08/27 07:34:40;;;;;;;4.20;2.97;;;11.60;96.30;;;;;;4880105;29;20209;-83
2021/08/27 07:37:07;;;;;;;4.90;3.10;;;11.60;96.30;;;;;;4881696;29;20417;-83
2021/08/27 07:39:33;;;;;;;3.33;3.00;;;11.60;96.30;;;;;;4881217;29;20823;-83
2021/08/27 07:41:59;;;;;;;5.23;3.10;;;11.40;96.30;;;;;;4900714;29;20540;-83
2021/08/27 07:44:24;;;;;;;5.97;3.00;;;11.40;96.30;;;;;;4919106;29;20963;-82
2021/08/27 07:46:50;;;;;;;3.83;2.73;;;11.40;96.30;;;;;;4917186;29;20180;-82
2021/08/27 07:49:15;;;;;;;5.80;3.27;;;11.40;96.30;;;;;;4895648;29;20676;-83
2021/08/27 07:51:46;;;;;;;5.97;2.90;;;11.30;96.30;;;;;;4898590;29;20239;-83
2021/08/27 07:54:12;;;;;;;3.00;2.70;;;11.30;96.30;;;;;;4899651;29;20181;-83
2021/08/27 07:56:37;;;;;;;4.63;2.90;;;11.30;96.30;;;;;;4905345;29;20428;-83
2021/08/27 07:59:03;;;;;;;4.53;3.10;;;11.20;96.30;;;;;;4913982;29;20770;-82
2021/08/27 08:01:28;;;;;;;3.20;2.90;;;11.30;96.30;;;;;;4898423;29;20216;-82
2021/08/27 08:03:54;;;;;;;4.00;3.10;;;11.30;96.30;;;;;;4899248;29;20258;-83
2021/08/27 08:06:19;;;;;;;4.47;3.33;;;11.40;96.30;;;;;;4898369;29;20185;-82
2021/08/27 08:08:45;;;;;;;3.77;3.00;;;11.40;96.30;;;;;;4898722;29;20187;-82
2021/08/27 08:11:10;;;;;;;4.70;3.20;;;11.40;96.30;;;;;;4898477;29;20559;-81
2021/08/27 08:13:36;;;;;;;5.70;3.90;;;11.50;96.30;;;;;;4898467;29;20283;-81
2021/08/27 08:16:01;;;;;;;5.13;3.40;;;11.50;96.30;;;;;;4899256;29;20636;-82
2021/08/27 08:18:27;;;;;;;4.40;3.50;;;11.50;96.30;;;;;;4899500;29;20248;-82
2021/08/27 08:20:52;;;;;;;4.90;3.00;;;11.50;96.30;;;;;;4899691;29;20201;-82
2021/08/27 08:23:18;;;;;;;4.60;2.77;;;11.50;96.30;;;;;;4903987;29;20180;-82
2021/08/27 08:25:43;;;;;;;4.90;3.00;;;11.50;96.30;;;;;;4908458;29;20192;-81
2021/08/27 08:28:09;;;;;;;4.47;2.70;;;11.40;96.30;;;;;;4917573;29;20629;-82
2021/08/27 08:30:35;;;;;;;6.03;2.70;;;11.30;96.30;;;;;;4918875;29;20259;-82
2021/08/27 08:33:00;;;;;;;3.60;2.60;;;11.20;96.30;;;;;;4917389;29;20432;-82
2021/08/27 08:35:26;;;;;;;3.53;2.30;;;11.20;96.30;;;;;;4918480;29;20216;-82
2021/08/27 08:37:51;;;;;;;4.23;2.60;;;11.30;96.30;;;;;;4919532;29;20177;-81
2021/08/27 08:40:17;;;;;;;3.90;2.67;;;11.40;96.30;;;;;;4917697;29;20259;-82
2021/08/27 08:42:43;;;;;;;5.80;3.17;;;11.30;96.30;;;;;;4908244;29;20760;-82
2021/08/27 08:45:09;;;;;;;4.63;2.60;;;11.30;96.30;;;;;;4900369;29;20268;-82
2021/08/27 08:47:37;;;;;;;2.40;2.20;;;11.50;96.30;;;;;;4914984;29;20657;-82
2021/08/27 08:50:03;;;;;;;3.40;2.13;;;11.70;96.30;;;;;;4898733;29;20417;-83
2021/08/27 08:52:30;;;;;;;6.40;2.60;;;11.90;96.30;;;;;;4897461;29;20449;-82
2021/08/27 08:54:57;;;;;;;3.73;1.87;;;12.10;96.30;;;;;;4900055;29;20452;-81
2021/08/27 08:57:22;;;;;;;2.77;2.10;;;12.30;96.30;;;;;;4926834;29;20432;-82
2021/08/27 08:59:50;;;;;;;3.83;1.83;;;12.70;96.30;;;;;;4905882;29;20418;-82
2021/08/27 09:02:16;;;;;;;3.60;2.13;;;13.20;96.30;;;;;;4885080;29;20212;-83
2021/08/27 09:04:41;;;;;;;4.33;1.80;;;13.60;96.30;;;;;;4896302;29;20421;-83
2021/08/27 09:07:07;;;;;;;3.70;1.60;;;14.00;96.30;;;;;;4897909;29;20710;-82
2021/08/27 09:09:36;;;;;;;7.97;1.47;;;14.10;96.30;;;;;;4898245;29;20259;-82
2021/08/27 09:12:27;;;;;;;5.00;1.50;;;13.80;96.30;;;;;;4897553;29;20228;-83
2021/08/27 09:14:56;;;;;;;2.10;1.20;;;13.40;96.30;;;;;;4898036;29;20455;-83
2021/08/27 09:17:37;;;;;;;2.37;1.63;;;13.20;96.30;;;;;;4913587;29;20456;-83
2021/08/27 09:20:10;;;;;;;2.13;1.53;;;12.90;96.30;;;;;;4915663;29;20515;-83
2021/08/27 09:23:04;;;;;;;1.60;1.20;;;12.80;96.30;;;;;;4914930;29;20408;-83
2021/08/27 09:25:32;;;;;;;3.30;1.30;;;12.50;96.30;;;;;;4914340;29;20940;-83
2021/08/27 09:28:10;;;;;;;1.83;1.10;;;12.40;96.30;;;;;;4898427;29;20954;-82
2021/08/27 09:30:50;;;;;;;2.13;1.27;;;12.50;96.30;;;;;;4899540;29;20933;-81
2021/08/27 09:33:22;;;;;;;2.23;1.10;;;12.80;96.30;;;;;;4898986;29;20916;-81
2021/08/27 09:36:06;;;;;;;2.90;1.10;;;12.70;96.30;;;;;;4897852;29;20469;-80
2021/08/27 09:38:36;;;;;;;1.13;1.00;;;12.70;96.30;;;;;;4898461;29;20412;-79
2021/08/27 09:41:06;;;;;;;1.33;1.13;;;12.50;96.30;;;;;;4896965;29;20429;-79
2021/08/27 09:43:47;;;;;;;1.30;1.20;;;12.50;96.30;;;;;;4898041;29;20424;-80
2021/08/27 09:46:41;;;;;;;1.30;1.20;;;12.70;96.30;;;;;;4898138;29;20504;-81
2021/08/27 09:49:28;;;;;;;1.20;1.10;;;12.80;96.30;;;;;;4897857;29;20421;-81
2021/08/27 09:51:55;;;;;;;1.70;1.07;;;13.10;96.30;;;;;;4898270;29;20809;-79
2021/08/27 09:54:28;;;;;;;2.70;1.30;;;13.00;96.30;;;;;;4896554;29;20493;-82
2021/08/27 09:56:55;;;;;;;1.90;1.10;;;12.90;96.30;;;;;;4895706;29;20554;-82
2021/08/27 09:59:50;;;;;;;2.80;1.20;;;12.70;96.30;;;;;;4895084;29;20808;-80
2021/08/27 10:02:21;;;;;;;1.27;1.17;;;12.70;96.30;;;;;;4894874;29;20953;-80
2021/08/27 10:04:57;;;;;;;2.63;1.40;;;12.70;96.30;;;;;;4895416;29;20413;-78
2021/08/27 10:07:30;;;;;;;2.10;1.40;;;12.60;96.30;;;;;;4891719;29;20425;-78
2021/08/27 10:09:58;;;;;;;3.43;1.70;;;12.40;96.30;;;;;;4896747;29;20965;-74
2021/08/27 10:12:30;;;;;;;3.57;2.07;;;12.40;96.30;;;;;;4896040;29;20792;-74
2021/08/27 10:14:56;;;;;;;1.80;1.60;;;12.40;96.30;;;;;;4892587;29;20540;-77
2021/08/27 10:17:22;;;;;;;3.80;1.27;;;12.40;96.30;;;;;;4895381;29;20432;-77
2021/08/27 10:19:47;;;;;;;2.30;1.57;;;12.40;96.30;;;;;;4895715;29;20413;-77
2021/08/27 10:27:24;;;;;;;3.03;1.67;;;12.10;96.30;;;;;;5968947;23;20453;-77
2021/08/27 10:29:54;;;;;;;3.50;2.00;;;12.10;96.30;;;;;;4952529;28;20403;-77
2021/08/27 10:32:38;;;;;;;3.20;2.00;;;12.00;96.30;;;;;;4951929;28;20266;-77
2021/08/27 10:35:08;;;;;;;5.53;1.77;;;12.00;96.30;;;;;;4951255;29;20833;-75
2021/08/27 10:37:50;;;;;;;4.40;2.17;;;11.90;96.30;;;;;;4951874;29;20791;-76
2021/08/27 10:40:37;;;;;;;2.50;1.30;;;12.00;96.30;;;;;;4952125;28;20415;-77
2021/08/27 10:43:03;;;;;;;3.40;1.73;;;12.00;96.30;;;;;;4951831;28;20407;-78
2021/08/27 10:45:41;;;;;;;6.40;2.20;;;12.00;96.30;;;;;;4952884;28;20419;-77
2021/08/27 10:48:09;;;;;;;3.30;1.57;;;11.90;96.30;;;;;;4954887;28;20410;-76
2021/08/27 10:50:35;;;;;;;2.40;1.33;;;12.00;96.30;;;;;;4955604;29;20442;-74
2021/08/27 10:53:19;;;;;;;2.43;1.20;;;12.00;96.30;;;;;;4955735;28;20425;-74
2021/08/27 10:55:45;;;;;;;2.90;1.40;;;11.90;96.30;;;;;;4957056;28;20198;-75
2021/08/27 10:58:13;;;;;;;2.33;1.70;;;12.00;96.30;;;;;;4955002;28;20790;-74
2021/08/27 11:00:52;;;;;;;6.17;1.57;;;12.10;96.30;;;;;;4956864;28;20441;-75
2021/08/27 11:03:19;;;;;;;1.60;1.50;;;12.20;96.30;;;;;;4955480;28;20411;-75
2021/08/27 11:05:46;;;;;;;3.07;1.83;;;12.30;96.30;;;;;;4957799;28;20411;-76
2021/08/27 11:08:17;;;;;;;2.30;2.00;;;12.40;96.30;;;;;;4956634;28;21119;-76
2021/08/27 11:11:04;;;;;;;2.10;1.90;;;12.50;96.30;;;;;;4957699;28;20497;-78
2021/08/27 11:13:37;;;;;;;2.43;1.80;;;12.50;96.30;;;;;;4957175;28;20945;-80
2021/08/27 11:16:21;;;;;;;1.60;1.47;;;12.50;96.30;;;;;;4956251;28;20457;-77
2021/08/27 11:18:48;;;;;;;5.10;2.00;;;12.60;96.30;;;;;;4942092;29;20493;-77
2021/08/27 11:21:32;;;;;;;3.27;1.90;;;12.80;96.30;;;;;;4952823;28;20439;-76
2021/08/27 11:24:16;;;;;;;2.47;2.07;;;12.80;96.30;;;;;;4938949;29;20408;-76
2021/08/27 11:27:03;;;;;;;1.83;1.70;;;12.80;96.30;;;;;;4937411;29;20410;-76
2021/08/27 11:29:40;;;;;;;4.10;1.80;;;12.90;96.30;;;;;;4938522;29;20792;-76
2021/08/27 11:32:16;;;;;;;3.60;2.00;;;12.90;96.30;;;;;;4936515;29;20834;-76
2021/08/27 11:34:51;;;;;;;2.80;1.73;;;12.90;96.30;;;;;;4937584;29;20950;-77
2021/08/27 11:37:17;;;;;;;3.33;1.40;;;12.80;96.30;;;;;;4936525;29;20446;-76
2021/08/27 11:39:45;;;;;;;3.20;1.47;;;12.60;96.30;;;;;;4938194;29;21309;-76
2021/08/27 11:42:12;;;;;;;4.10;2.20;;;12.50;96.30;;;;;;4937749;29;20447;-77
2021/08/27 11:44:42;;;;;;;2.97;1.87;;;12.50;96.30;;;;;;4952557;29;20456;-79
2021/08/27 11:47:11;;;;;;;3.43;2.00;;;12.70;96.30;;;;;;4956944;29;20498;-76
2021/08/27 11:49:45;;;;;;;5.20;1.60;;;12.60;96.30;;;;;;4956381;29;20427;-76
2021/08/27 11:52:13;;;;;;;2.13;1.93;;;12.50;96.30;;;;;;4954759;29;20806;-76
2021/08/27 11:54:40;;;;;;;1.23;1.13;;;12.50;96.30;;;;;;4944949;28;20457;-75
2021/08/27 11:57:14;;;;;;;3.77;1.87;;;12.40;96.30;;;;;;4955503;29;20548;-77
2021/08/27 11:59:41;;;;;;;2.60;1.40;;;12.30;96.30;;;;;;4955160;28;20505;-75
2021/08/27 12:02:18;;;;;;;5.93;1.80;;;12.40;96.30;;;;;;4955735;28;20845;-76
2021/08/27 12:04:43;;;;;;;2.00;1.57;;;12.50;96.30;;;;;;4939273;28;20498;-76
2021/08/27 12:07:14;;;;;;;3.37;1.73;;;12.50;96.30;;;;;;4945302;29;20505;-79
2021/08/27 12:09:41;;;;;;;1.87;1.70;;;12.30;96.30;;;;;;4955059;28;20631;-80
2021/08/27 12:12:27;;;;;;;1.77;1.53;;;12.30;96.30;;;;;;4955376;28;20439;-79
2021/08/27 12:14:53;;;;;;;2.40;2.07;;;12.50;96.30;;;;;;4956069;29;20485;-80
2021/08/27 12:17:21;;;;;;;3.23;1.80;;;12.50;96.30;;;;;;4954728;28;20434;-80
2021/08/27 12:19:48;;;;;;;3.93;1.87;;;12.50;96.30;;;;;;4956128;28;20489;-80
2021/08/27 12:22:17;;;;;;;4.87;1.90;;;12.60;96.30;;;;;;4954158;28;20966;-80
2021/08/27 12:24:42;;;;;;;2.33;1.70;;;12.60;96.30;;;;;;4956473;28;20509;-80
2021/08/27 12:27:09;;;;;;;6.23;2.37;;;12.50;96.30;;;;;;4954810;28;20414;-81
2021/08/27 12:29:34;;;;;;;2.40;1.50;;;12.60;96.30;;;;;;4955706;28;20281;-81
2021/08/27 12:32:00;;;;;;;3.53;1.80;;;12.70;96.30;;;;;;4955443;28;20521;-81
2021/08/27 12:34:25;;;;;;;2.90;1.80;;;12.80;96.30;;;;;;4952233;28;20255;-81
2021/08/27 12:36:51;;;;;;;2.20;1.57;;;12.80;96.30;;;;;;4942232;29;20182;-80
2021/08/27 12:39:17;;;;;;;2.60;1.60;;;12.70;96.30;;;;;;4954103;28;20178;-81
2021/08/27 12:41:43;;;;;;;1.53;1.30;;;12.70;96.30;;;;;;4953085;28;20265;-81
2021/08/27 12:44:10;;;;;;;3.27;1.77;;;12.60;96.30;;;;;;4936175;29;20228;-80
2021/08/27 12:46:37;;;;;;;2.53;1.20;;;12.60;96.30;;;;;;4937961;29;20667;-80
2021/08/27 12:49:12;;;;;;;1.63;1.53;;;12.50;96.30;;;;;;4936359;29;20415;-81
2021/08/27 12:51:46;;;;;;;2.27;1.50;;;12.30;96.30;;;;;;4937111;29;20431;-80
2021/08/27 12:54:12;;;;;;;2.20;1.50;;;12.30;96.30;;;;;;4938390;29;20930;-79
2021/08/27 12:56:38;;;;;;;1.83;1.50;;;12.20;96.30;;;;;;4937804;29;20846;-79
2021/08/27 12:59:18;;;;;;;2.47;1.47;;;12.20;96.30;;;;;;4937407;29;20423;-81
2021/08/27 13:01:44;;;;;;;2.10;1.60;;;12.10;96.30;;;;;;4937262;29;20274;-81
2021/08/27 13:04:09;;;;;;;1.70;1.60;;;12.30;96.30;;;;;;4937512;29;20411;-80
2021/08/27 13:06:37;;;;;;;1.70;1.60;;;12.30;96.30;;;;;;4934708;29;20430;-79
2021/08/27 13:09:07;;;;;;;4.63;1.40;;;12.20;96.30;;;;;;4935685;29;20178;-79
2021/08/27 13:11:50;;;;;;;1.53;1.33;;;12.20;96.30;;;;;;4934368;29;20481;-80
2021/08/27 13:14:33;;;;;;;1.93;1.40;;;12.30;96.30;;;;;;4934888;29;20814;-79
2021/08/27 13:16:59;;;;;;;3.00;1.70;;;12.50;96.30;;;;;;4936853;29;20392;-79
2021/08/27 13:19:44;;;;;;;2.33;1.33;;;12.70;96.30;;;;;;4935389;29;20489;-80
2021/08/27 13:22:21;;;;;;;1.93;1.70;;;12.90;96.30;;;;;;4935163;29;20195;-78
2021/08/27 13:24:53;;;;;;;1.27;1.17;;;13.20;96.30;;;;;;4938148;29;20939;-78
2021/08/27 13:27:19;;;;;;;1.47;1.07;;;13.30;96.30;;;;;;4954631;29;20458;-79
2021/08/27 13:29:44;;;;;;;1.10;1.00;;;13.20;96.30;;;;;;4955624;28;20895;-79
2021/08/27 13:32:38;;;;;;;2.33;1.60;;;13.10;96.30;;;;;;4947115;28;20294;-79
2021/08/27 13:35:04;;;;;;;2.90;1.17;;;13.10;96.30;;;;;;4940516;29;20206;-79
2021/08/27 13:37:30;;;;;;;1.23;1.13;;;13.20;96.30;;;;;;4952646;29;20915;-79
2021/08/27 13:39:55;;;;;;;1.20;1.00;;;13.00;96.30;;;;;;4954934;28;20426;-79
2021/08/27 13:42:21;;;;;;;1.53;1.00;;;13.10;96.30;;;;;;4954415;28;20655;-79
2021/08/27 13:44:47;;;;;;;2.63;0.80;;;13.00;96.30;;;;;;4953650;28;20214;-79
2021/08/27 13:47:12;;;;;;;3.10;1.20;;;12.90;96.30;;;;;;4955823;28;20218;-79
2021/08/27 13:49:38;;;;;;;1.20;1.10;;;12.80;96.30;;;;;;4955107;28;20179;-79
2021/08/27 13:52:04;;;;;;;1.47;0.97;;;12.70;96.30;;;;;;4942374;29;20207;-79
2021/08/27 13:54:29;;;;;;;2.80;1.20;;;12.50;96.30;;;;;;4955439;28;20663;-79
2021/08/27 13:56:55;;;;;;;2.30;1.33;;;12.40;96.30;;;;;;4953697;28;20671;-78
2021/08/27 13:59:22;;;;;;;1.30;1.20;;;12.60;96.30;;;;;;4953742;28;20239;-78
2021/08/27 14:01:47;;;;;;;2.30;1.27;;;12.60;96.30;;;;;;4953634;28;20190;-77
2021/08/27 14:04:13;;;;;;;2.80;1.23;;;12.50;96.30;;;;;;4954219;28;20411;-79
2021/08/27 14:06:38;;;;;;;1.50;1.10;;;12.60;96.30;;;;;;4954190;28;20234;-78
2021/08/27 14:09:04;;;;;;;1.50;1.40;;;12.70;96.30;;;;;;4954665;28;20317;-79
2021/08/27 14:11:30;;;;;;;1.40;1.20;;;12.80;96.30;;;;;;4954219;28;20218;-78
2021/08/27 14:13:56;;;;;;;1.60;1.10;;;12.70;96.30;;;;;;4954092;28;20164;-79
2021/08/27 14:16:22;;;;;;;4.60;1.67;;;12.80;96.30;;;;;;4954523;28;20553;-79
2021/08/27 14:18:47;;;;;;;1.83;1.67;;;12.80;96.30;;;;;;4953813;28;20182;-77
2021/08/27 14:21:13;;;;;;;1.43;1.33;;;12.80;96.30;;;;;;4954358;28;20199;-78
2021/08/27 14:23:38;;;;;;;3.60;1.70;;;12.80;96.30;;;;;;4958289;28;20198;-78
2021/08/27 14:26:05;;;;;;;1.73;1.63;;;12.80;96.30;;;;;;4958268;28;20713;-77
2021/08/27 14:28:30;;;;;;;4.17;1.70;;;13.10;96.30;;;;;;4958000;28;20607;-77
2021/08/27 14:30:56;;;;;;;1.63;1.30;;;13.20;96.30;;;;;;4956011;29;20918;-79
2021/08/27 14:33:25;;;;;;;1.17;1.07;;;13.20;96.30;;;;;;4957752;28;20207;-76
2021/08/27 14:35:51;;;;;;;2.03;1.30;;;13.30;96.30;;;;;;4958035;28;20202;-79
2021/08/27 14:38:16;;;;;;;2.47;1.53;;;13.20;96.30;;;;;;4958285;28;20410;-78
2021/08/27 14:40:42;;;;;;;1.43;0.80;;;13.20;96.30;;;;;;4959099;28;20191;-76
2021/08/27 14:43:07;;;;;;;1.50;1.00;;;13.10;96.30;;;;;;4958696;28;20659;-78
2021/08/27 14:45:33;;;;;;;2.43;1.00;;;13.10;96.30;;;;;;4958939;28;20214;-77
2021/08/27 14:47:59;;;;;;;1.00;0.83;;;13.00;96.30;;;;;;4959080;28;20186;-76
2021/08/27 14:50:24;;;;;;;1.00;0.90;;;13.00;96.30;;;;;;4959510;28;20186;-78
2021/08/27 14:52:50;;;;;;;1.93;1.10;;;13.10;96.30;;;;;;4959128;28;20245;-79
2021/08/27 14:55:15;;;;;;;2.03;1.40;;;13.30;96.30;;;;;;4959811;28;20746;-77
2021/08/27 14:57:41;;;;;;;1.07;0.97;;;13.40;96.30;;;;;;4959041;28;20270;-78
2021/08/27 15:00:07;;;;;;;1.10;0.90;;;13.40;96.30;;;;;;4958086;29;20567;-77
2021/08/27 15:02:33;;;;;;;1.13;1.03;;;13.40;96.30;;;;;;4958525;28;20742;-78
2021/08/27 15:04:59;;;;;;;3.40;1.10;;;13.30;96.30;;;;;;4958829;28;20450;-78
2021/08/27 15:07:25;;;;;;;4.20;1.00;;;13.20;96.30;;;;;;4958511;28;20181;-77
2021/08/27 15:09:51;;;;;;;1.20;0.97;;;13.10;96.30;;;;;;4957426;28;20415;-78
2021/08/27 15:12:20;;;;;;;1.60;0.90;;;13.10;96.30;;;;;;4957136;28;20265;-78
2021/08/27 15:14:45;;;;;;;1.33;1.10;;;13.00;96.30;;;;;;4958317;28;20290;-77
2021/08/27 15:17:11;;;;;;;1.50;1.07;;;13.00;96.30;;;;;;4958783;28;20497;-77
2021/08/27 15:19:36;;;;;;;1.10;1.00;;;13.20;96.30;;;;;;4957096;29;20274;-77
2021/08/27 15:22:02;;;;;;;1.30;1.20;;;13.30;96.30;;;;;;4956893;28;20274;-80
2021/08/27 15:24:28;;;;;;;1.50;0.83;;;13.40;96.30;;;;;;4956880;28;20178;-77
2021/08/27 15:26:53;;;;;;;1.47;1.00;;;13.60;96.30;;;;;;4937738;29;20184;-77
2021/08/27 15:29:19;;;;;;;1.37;0.83;;;13.70;96.30;;;;;;4937719;29;20187;-77
2021/08/27 15:31:44;;;;;;;2.13;0.97;;;13.60;96.30;;;;;;4937280;29;20286;-77
2021/08/27 15:34:10;;;;;;;2.40;0.97;;;13.50;96.30;;;;;;4937033;29;20749;-77
2021/08/27 15:36:35;;;;;;;2.90;1.00;;;13.50;96.30;;;;;;4937024;29;20199;-78
2021/08/27 15:39:01;;;;;;;0.90;0.70;;;13.40;96.30;;;;;;4939644;29;20179;-79
2021/08/27 15:41:26;;;;;;;2.90;0.73;;;13.40;96.30;;;;;;4939716;29;20978;-77
2021/08/27 15:43:52;;;;;;;1.30;0.73;;;13.40;96.30;;;;;;4939716;29;20604;-78
2021/08/27 15:46:17;;;;;;;0.97;0.80;;;13.60;96.30;;;;;;4939846;29;20176;-77
2021/08/27 15:48:43;;;;;;;1.00;0.90;;;13.50;96.30;;;;;;4948418;29;20277;-79
2021/08/27 15:51:08;;;;;;;0.90;0.70;;;13.40;96.30;;;;;;4955667;28;20573;-77
2021/08/27 15:53:35;;;;;;;1.00;0.70;;;13.30;96.30;;;;;;4955962;28;20179;-77
2021/08/27 15:56:01;;;;;;;4.00;0.60;;;13.10;96.30;;;;;;4953171;28;20196;-77
2021/08/27 15:58:26;;;;;;;1.37;1.00;;;12.90;96.30;;;;;;4952054;29;20530;-78
2021/08/27 16:00:52;;;;;;;0.90;0.67;;;13.00;96.30;;;;;;4949384;29;20326;-77
2021/08/27 16:03:18;;;;;;;3.73;0.50;;;12.90;96.30;;;;;;4951204;29;20265;-77
2021/08/27 16:05:52;;;;;;;0.90;0.60;;;12.80;96.30;;;;;;4959435;28;20550;-79
2021/08/27 16:08:18;;;;;;;1.27;0.60;;;12.60;96.30;;;;;;4952563;28;20186;-80
2021/08/27 16:10:45;;;;;;;0.87;0.60;;;12.50;96.30;;;;;;4952865;29;20447;-78
2021/08/27 16:13:12;;;;;;;0.93;0.70;;;12.40;96.30;;;;;;4939543;29;20515;-79
2021/08/27 16:15:37;;;;;;;1.00;0.60;;;12.40;96.30;;;;;;4937296;29;20469;-77
2021/08/27 16:18:03;;;;;;;0.80;0.60;;;12.50;96.30;;;;;;4939063;29;20458;-78
2021/08/27 16:25:40;;;;;;;2.03;0.70;;;12.60;96.30;;;;;;1003459;26;20766;-75
2021/08/27 16:28:08;;;;;;;1.30;1.00;;;12.60;96.30;;;;;;4934153;29;20829;-78
2021/08/27 16:30:37;;;;;;;1.00;0.80;;;12.50;96.30;;;;;;4932839;29;20436;-77
2021/08/27 16:33:04;;;;;;;0.90;0.60;;;12.40;96.30;;;;;;4916148;29;20416;-77
2021/08/27 16:35:29;;;;;;;1.23;0.80;;;12.40;96.30;;;;;;4917052;29;20488;-77
2021/08/27 16:37:55;;;;;;;0.90;0.73;;;12.50;96.30;;;;;;4916567;29;20922;-77
2021/08/27 16:40:20;;;;;;;1.03;0.90;;;12.50;96.30;;;;;;4917966;29;20199;-78
2021/08/27 16:42:46;;;;;;;4.73;0.90;;;12.50;96.30;;;;;;4915958;29;20235;-76
2021/08/27 16:45:12;;;;;;;1.10;0.97;;;12.50;96.30;;;;;;4915632;29;20188;-77
2021/08/27 16:47:37;;;;;;;1.77;1.10;;;12.50;96.30;;;;;;4914136;29;20172;-78
2021/08/27 16:50:04;;;;;;;3.77;2.30;;;12.50;96.30;;;;;;4916306;29;20239;-77
2021/08/27 16:52:29;;;;;;;2.30;1.33;;;12.50;96.30;;;;;;4915863;29;20219;-76
2021/08/27 16:54:55;;;;;;;1.33;1.20;;;12.40;96.30;;;;;;4914104;29;20825;-77
2021/08/27 16:57:20;;;;;;;2.43;1.40;;;12.30;96.30;;;;;;4915338;29;20175;-75
2021/08/27 16:59:47;;;;;;;1.60;1.50;;;12.30;96.30;;;;;;4915591;29;20957;-77
2021/08/27 17:02:12;;;;;;;1.67;1.27;;;12.20;96.30;;;;;;4915336;29;20194;-77